sensor_id;sensor_type;location;lat;lon;timestamp;pressure;altitude;pressure_sealevel;temperature;humidity
5913;BME280;2982;42.684;23.356;2024-02-26T00:02:07;94494.91;;;7.42;100.00
5913;BME280;2982;42.684;23.356;2024-02-26T00:04:32;94494.22;;;7.39;100.00
5913;BME280;2982;42.684;23.356;2024-02-26T00:06:57;94495.81;;;7.41;100.00
5913;BME280;2982;42.684;23.356;2024-02-26T00:09:23;94493.34;;;7.40;100.00
5913;BME280;2982;42.684;23.356;2024-02-26T00:11:48;94482.56;;;7.36;100.00
5913;BME280;2982;42.684;23.356;2024-02-26T00:14:13;94346.88;;;6.34;100.00
5913;BME280;2982;42.684;23.356;2024-02-26T00:16:42;94485.00;;;7.38;100.00
5913;BME280;2982;42.684;23.356;2024-02-26T00:19:07;94495.94;;;7.38;100.00
5913;BME280;2982;42.684;23.356;2024-02-26T00:21:33;94493.19;;;7.43;100.00
5913;BME280;2982;42.684;23.356;2024-02-26T00:23:58;94487.25;;;7.44;100.00
5913;BME280;2982;42.684;23.356;2024-02-26T00:26:23;94482.25;;;7.42;100.00
5913;BME280;2982;42.684;23.356;2024-02-26T00:28:49;94434.09;;;7.11;100.00
5913;BME280;2982;42.684;23.356;2024-02-26T00:31:14;94424.22;;;7.06;100.00
5913;BME280;2982;42.684;23.356;2024-02-26T00:33:40;94477.09;;;7.45;100.00
5913;BME280;2982;42.684;23.356;2024-02-26T00:36:05;94476.38;;;7.42;100.00
5913;BME280;2982;42.684;23.356;2024-02-26T00:38:31;94469.19;;;7.51;100.00
5913;BME280;2982;42.684;23.356;2024-02-26T00:40:56;94469.06;;;7.55;100.00
5913;BME280;2982;42.684;23.356;2024-02-26T00:43:21;94468.97;;;7.56;100.00
5913;BME280;2982;42.684;23.356;2024-02-26T00:45:47;94451.38;;;7.55;100.00
5913;BME280;2982;42.684;23.356;2024-02-26T00:48:12;94462.66;;;7.65;100.00
5913;BME280;2982;42.684;23.356;2024-02-26T00:50:38;94460.00;;;7.68;100.00
5913;BME280;2982;42.684;23.356;2024-02-26T00:53:03;94451.19;;;7.75;100.00
5913;BME280;2982;42.684;23.356;2024-02-26T00:55:28;94431.34;;;7.67;100.00
5913;BME280;2982;42.684;23.356;2024-02-26T00:57:54;94450.72;;;7.84;100.00
5913;BME280;2982;42.684;23.356;2024-02-26T01:00:19;94443.84;;;7.87;100.00
5913;BME280;2982;42.684;23.356;2024-02-26T01:02:45;94456.75;;;7.98;100.00
5913;BME280;2982;42.684;23.356;2024-02-26T01:05:10;94449.25;;;7.97;100.00
5913;BME280;2982;42.684;23.356;2024-02-26T01:07:35;94444.03;;;8.00;100.00
5913;BME280;2982;42.684;23.356;2024-02-26T01:10:01;94442.72;;;7.93;100.00
5913;BME280;2982;42.684;23.356;2024-02-26T01:12:27;94447.53;;;7.97;100.00
5913;BME280;2982;42.684;23.356;2024-02-26T01:14:52;94445.56;;;8.03;100.00
5913;BME280;2982;42.684;23.356;2024-02-26T01:17:18;94443.56;;;8.09;100.00
5913;BME280;2982;42.684;23.356;2024-02-26T01:19:43;94446.25;;;8.06;100.00
5913;BME280;2982;42.684;23.356;2024-02-26T01:22:08;94449.97;;;8.16;100.00
5913;BME280;2982;42.684;23.356;2024-02-26T01:24:33;94452.72;;;8.12;100.00
5913;BME280;2982;42.684;23.356;2024-02-26T01:26:59;94403.22;;;7.90;100.00
5913;BME280;2982;42.684;23.356;2024-02-26T01:29:24;94454.56;;;8.08;100.00
5913;BME280;2982;42.684;23.356;2024-02-26T01:31:49;94426.63;;;8.11;100.00
5913;BME280;2982;42.684;23.356;2024-02-26T01:34:15;94443.16;;;8.17;100.00
5913;BME280;2982;42.684;23.356;2024-02-26T01:36:40;94414.44;;;8.02;100.00
5913;BME280;2982;42.684;23.356;2024-02-26T01:39:05;94422.69;;;8.06;100.00
5913;BME280;2982;42.684;23.356;2024-02-26T01:41:31;94434.84;;;8.15;100.00
5913;BME280;2982;42.684;23.356;2024-02-26T01:43:56;94430.69;;;8.14;100.00
5913;BME280;2982;42.684;23.356;2024-02-26T01:46:22;94428.16;;;8.14;100.00
5913;BME280;2982;42.684;23.356;2024-02-26T01:48:48;94436.41;;;8.17;100.00
5913;BME280;2982;42.684;23.356;2024-02-26T01:51:14;94422.94;;;8.17;100.00
5913;BME280;2982;42.684;23.356;2024-02-26T01:53:40;94426.78;;;8.24;100.00
5913;BME280;2982;42.684;23.356;2024-02-26T01:56:07;94429.38;;;8.22;100.00
5913;BME280;2982;42.684;23.356;2024-02-26T01:58:35;94426.84;;;8.22;100.00
5913;BME280;2982;42.684;23.356;2024-02-26T02:01:01;94424.50;;;8.19;100.00
5913;BME280;2982;42.684;23.356;2024-02-26T02:03:27;94417.72;;;8.20;100.00
5913;BME280;2982;42.684;23.356;2024-02-26T02:05:54;94428.44;;;8.25;100.00
5913;BME280;2982;42.684;23.356;2024-02-26T02:08:19;94432.56;;;8.26;100.00
5913;BME280;2982;42.684;23.356;2024-02-26T02:10:45;94427.63;;;8.24;100.00
5913;BME280;2982;42.684;23.356;2024-02-26T02:13:10;94423.50;;;8.22;100.00
5913;BME280;2982;42.684;23.356;2024-02-26T02:15:36;94425.09;;;8.24;100.00
5913;BME280;2982;42.684;23.356;2024-02-26T02:18:01;94413.88;;;8.13;100.00
5913;BME280;2982;42.684;23.356;2024-02-26T02:20:32;94423.50;;;8.22;100.00
5913;BME280;2982;42.684;23.356;2024-02-26T02:22:57;94425.16;;;8.23;100.00
5913;BME280;2982;42.684;23.356;2024-02-26T02:25:23;94431.19;;;8.20;100.00
5913;BME280;2982;42.684;23.356;2024-02-26T02:27:48;94430.13;;;8.24;100.00
5913;BME280;2982;42.684;23.356;2024-02-26T02:30:13;94407.19;;;8.12;100.00
5913;BME280;2982;42.684;23.356;2024-02-26T02:32:40;94431.63;;;8.28;100.00
5913;BME280;2982;42.684;23.356;2024-02-26T02:35:06;94430.75;;;8.29;100.00
5913;BME280;2982;42.684;23.356;2024-02-26T02:37:31;94422.03;;;8.35;100.00
5913;BME280;2982;42.684;23.356;2024-02-26T02:39:56;94424.47;;;8.36;100.00
5913;BME280;2982;42.684;23.356;2024-02-26T02:42:22;94417.69;;;8.37;100.00
5913;BME280;2982;42.684;23.356;2024-02-26T02:44:47;94429.16;;;8.44;100.00
5913;BME280;2982;42.684;23.356;2024-02-26T02:47:12;94378.22;;;8.17;100.00
5913;BME280;2982;42.684;23.356;2024-02-26T02:49:38;94407.00;;;8.32;100.00
5913;BME280;2982;42.684;23.356;2024-02-26T02:52:03;94428.91;;;8.49;100.00
5913;BME280;2982;42.684;23.356;2024-02-26T02:54:29;94420.88;;;8.40;100.00
5913;BME280;2982;42.684;23.356;2024-02-26T02:56:54;94424.88;;;8.45;100.00
5913;BME280;2982;42.684;23.356;2024-02-26T02:59:19;94436.97;;;8.55;100.00
5913;BME280;2982;42.684;23.356;2024-02-26T03:01:45;94436.31;;;8.52;100.00
5913;BME280;2982;42.684;23.356;2024-02-26T03:04:10;94423.75;;;8.50;100.00
5913;BME280;2982;42.684;23.356;2024-02-26T03:06:35;94431.44;;;8.49;100.00
5913;BME280;2982;42.684;23.356;2024-02-26T03:09:01;94430.50;;;8.50;100.00
5913;BME280;2982;42.684;23.356;2024-02-26T03:11:26;94435.50;;;8.51;100.00
5913;BME280;2982;42.684;23.356;2024-02-26T03:13:51;94443.28;;;8.48;100.00
5913;BME280;2982;42.684;23.356;2024-02-26T03:16:17;94450.63;;;8.53;100.00
5913;BME280;2982;42.684;23.356;2024-02-26T03:18:42;94448.91;;;8.53;100.00
5913;BME280;2982;42.684;23.356;2024-02-26T03:21:08;94435.44;;;8.53;100.00
5913;BME280;2982;42.684;23.356;2024-02-26T03:23:33;94440.56;;;8.51;100.00
5913;BME280;2982;42.684;23.356;2024-02-26T03:25:59;94424.22;;;8.41;100.00
5913;BME280;2982;42.684;23.356;2024-02-26T03:28:24;94422.44;;;8.43;100.00
5913;BME280;2982;42.684;23.356;2024-02-26T03:30:49;94425.88;;;8.42;100.00
5913;BME280;2982;42.684;23.356;2024-02-26T03:33:14;94422.28;;;8.30;100.00
5913;BME280;2982;42.684;23.356;2024-02-26T03:35:40;94414.84;;;8.26;100.00
5913;BME280;2982;42.684;23.356;2024-02-26T03:38:05;94417.25;;;8.29;100.00
5913;BME280;2982;42.684;23.356;2024-02-26T03:40:30;94421.66;;;8.25;100.00
5913;BME280;2982;42.684;23.356;2024-02-26T03:42:56;94421.72;;;8.24;100.00
5913;BME280;2982;42.684;23.356;2024-02-26T03:45:21;94396.91;;;8.15;100.00
5913;BME280;2982;42.684;23.356;2024-02-26T03:47:47;94412.31;;;8.26;100.00
5913;BME280;2982;42.684;23.356;2024-02-26T03:50:12;94389.94;;;8.03;100.00
5913;BME280;2982;42.684;23.356;2024-02-26T03:52:37;94409.38;;;8.18;100.00
5913;BME280;2982;42.684;23.356;2024-02-26T03:55:03;94400.03;;;8.20;100.00
5913;BME280;2982;42.684;23.356;2024-02-26T03:57:28;94418.63;;;8.19;100.00
5913;BME280;2982;42.684;23.356;2024-02-26T03:59:54;94414.38;;;8.19;100.00
5913;BME280;2982;42.684;23.356;2024-02-26T04:02:19;94406.28;;;8.13;100.00
5913;BME280;2982;42.684;23.356;2024-02-26T04:04:46;94413.63;;;8.17;100.00
5913;BME280;2982;42.684;23.356;2024-02-26T04:07:11;94415.19;;;8.20;100.00
5913;BME280;2982;42.684;23.356;2024-02-26T04:09:37;94417.72;;;8.20;100.00
5913;BME280;2982;42.684;23.356;2024-02-26T04:12:02;94401.66;;;8.21;100.00
5913;BME280;2982;42.684;23.356;2024-02-26T04:14:28;94411.69;;;8.22;100.00
5913;BME280;2982;42.684;23.356;2024-02-26T04:16:53;94387.75;;;8.12;100.00
5913;BME280;2982;42.684;23.356;2024-02-26T04:19:18;94385.31;;;8.11;100.00
5913;BME280;2982;42.684;23.356;2024-02-26T04:21:44;94381.56;;;8.02;100.00
5913;BME280;2982;42.684;23.356;2024-02-26T04:24:09;94390.03;;;8.17;100.00
5913;BME280;2982;42.684;23.356;2024-02-26T04:26:34;94392.50;;;8.18;100.00
5913;BME280;2982;42.684;23.356;2024-02-26T04:29:00;94398.72;;;8.28;100.00
5913;BME280;2982;42.684;23.356;2024-02-26T04:31:25;94392.56;;;8.34;100.00
5913;BME280;2982;42.684;23.356;2024-02-26T04:33:51;94345.81;;;8.08;100.00
5913;BME280;2982;42.684;23.356;2024-02-26T04:36:16;94400.38;;;8.29;100.00
5913;BME280;2982;42.684;23.356;2024-02-26T04:38:42;94384.44;;;8.12;100.00
5913;BME280;2982;42.684;23.356;2024-02-26T04:41:08;94399.38;;;8.16;100.00
5913;BME280;2982;42.684;23.356;2024-02-26T04:43:33;94375.34;;;7.92;100.00
5913;BME280;2982;42.684;23.356;2024-02-26T04:45:58;94401.09;;;8.16;100.00
5913;BME280;2982;42.684;23.356;2024-02-26T04:48:24;94408.38;;;8.05;100.00
5913;BME280;2982;42.684;23.356;2024-02-26T04:50:49;94389.09;;;7.86;100.00
5913;BME280;2982;42.684;23.356;2024-02-26T04:53:14;94401.97;;;7.82;100.00
5913;BME280;2982;42.684;23.356;2024-02-26T04:55:40;94395.75;;;7.72;100.00
5913;BME280;2982;42.684;23.356;2024-02-26T04:58:05;94406.97;;;7.83;100.00
5913;BME280;2982;42.684;23.356;2024-02-26T05:00:30;94414.97;;;7.91;100.00
5913;BME280;2982;42.684;23.356;2024-02-26T05:02:56;94417.44;;;7.93;100.00
5913;BME280;2982;42.684;23.356;2024-02-26T05:05:22;94359.28;;;7.60;100.00
5913;BME280;2982;42.684;23.356;2024-02-26T05:07:47;94399.38;;;7.83;100.00
5913;BME280;2982;42.684;23.356;2024-02-26T05:10:13;94422.63;;;7.90;100.00
5913;BME280;2982;42.684;23.356;2024-02-26T05:12:38;94419.16;;;7.92;100.00
5913;BME280;2982;42.684;23.356;2024-02-26T05:15:04;94433.84;;;8.02;100.00
5913;BME280;2982;42.684;23.356;2024-02-26T05:17:29;94384.75;;;7.73;100.00
5913;BME280;2982;42.684;23.356;2024-02-26T05:19:56;94450.09;;;8.13;100.00
5913;BME280;2982;42.684;23.356;2024-02-26T05:22:21;94450.09;;;8.13;100.00
5913;BME280;2982;42.684;23.356;2024-02-26T05:24:48;94444.38;;;8.10;100.00
5913;BME280;2982;42.684;23.356;2024-02-26T05:27:13;94450.50;;;8.06;100.00
5913;BME280;2982;42.684;23.356;2024-02-26T05:29:39;94428.66;;;7.87;100.00
5913;BME280;2982;42.684;23.356;2024-02-26T05:32:05;94448.84;;;8.05;100.00
5913;BME280;2982;42.684;23.356;2024-02-26T05:34:30;94461.34;;;8.08;100.00
5913;BME280;2982;42.684;23.356;2024-02-26T05:36:56;94461.50;;;8.05;100.00
5913;BME280;2982;42.684;23.356;2024-02-26T05:39:21;94466.09;;;8.14;100.00
5913;BME280;2982;42.684;23.356;2024-02-26T05:41:46;94465.78;;;8.20;100.00
5913;BME280;2982;42.684;23.356;2024-02-26T05:44:15;94440.81;;;8.14;100.00
5913;BME280;2982;42.684;23.356;2024-02-26T05:46:40;94470.91;;;8.35;100.00
5913;BME280;2982;42.684;23.356;2024-02-26T05:49:05;94432.31;;;8.15;100.00
5913;BME280;2982;42.684;23.356;2024-02-26T05:51:31;94470.59;;;8.42;100.00
5913;BME280;2982;42.684;23.356;2024-02-26T05:53:56;94456.41;;;8.39;100.00
5913;BME280;2982;42.684;23.356;2024-02-26T05:56:22;94427.22;;;8.32;100.00
5913;BME280;2982;42.684;23.356;2024-02-26T05:58:47;94467.53;;;8.52;100.00
5913;BME280;2982;42.684;23.356;2024-02-26T06:01:13;94443.88;;;8.36;100.00
5913;BME280;2982;42.684;23.356;2024-02-26T06:03:38;94462.03;;;8.60;100.00
5913;BME280;2982;42.684;23.356;2024-02-26T06:06:04;94460.66;;;8.54;100.00
5913;BME280;2982;42.684;23.356;2024-02-26T06:08:29;94482.91;;;8.80;100.00
5913;BME280;2982;42.684;23.356;2024-02-26T06:10:54;94485.31;;;8.82;100.00
5913;BME280;2982;42.684;23.356;2024-02-26T06:13:20;94447.75;;;8.59;100.00
5913;BME280;2982;42.684;23.356;2024-02-26T06:15:45;94484.19;;;8.88;100.00
5913;BME280;2982;42.684;23.356;2024-02-26T06:18:10;94488.94;;;8.94;100.00
5913;BME280;2982;42.684;23.356;2024-02-26T06:20:36;94483.22;;;8.90;100.00
5913;BME280;2982;42.684;23.356;2024-02-26T06:23:01;94493.94;;;8.95;100.00
5913;BME280;2982;42.684;23.356;2024-02-26T06:25:26;94489.72;;;9.10;100.00
5913;BME280;2982;42.684;23.356;2024-02-26T06:27:52;94481.50;;;9.06;100.00
5913;BME280;2982;42.684;23.356;2024-02-26T06:30:17;94488.94;;;8.94;100.00
5913;BME280;2982;42.684;23.356;2024-02-26T06:32:42;94496.47;;;8.95;100.00
5913;BME280;2982;42.684;23.356;2024-02-26T06:35:08;94485.03;;;9.04;100.00
5913;BME280;2982;42.684;23.356;2024-02-26T06:37:33;94456.91;;;8.93;100.00
5913;BME280;2982;42.684;23.356;2024-02-26T06:39:59;94472.00;;;9.10;100.00
5913;BME280;2982;42.684;23.356;2024-02-26T06:42:25;94487.63;;;9.18;100.00
5913;BME280;2982;42.684;23.356;2024-02-26T06:44:50;94466.78;;;9.13;100.00
5913;BME280;2982;42.684;23.356;2024-02-26T06:47:15;94495.44;;;9.29;100.00
5913;BME280;2982;42.684;23.356;2024-02-26T06:49:41;94491.50;;;9.39;100.00
5913;BME280;2982;42.684;23.356;2024-02-26T06:52:06;94469.78;;;9.35;100.00
5913;BME280;2982;42.684;23.356;2024-02-26T06:54:31;94487.31;;;9.54;100.00
5913;BME280;2982;42.684;23.356;2024-02-26T06:56:57;94487.81;;;9.60;100.00
5913;BME280;2982;42.684;23.356;2024-02-26T06:59:22;94443.09;;;9.44;100.00
5913;BME280;2982;42.684;23.356;2024-02-26T07:01:47;94488.81;;;9.72;100.00
5913;BME280;2982;42.684;23.356;2024-02-26T07:04:13;94488.75;;;9.73;100.00
5913;BME280;2982;42.684;23.356;2024-02-26T07:06:38;94460.72;;;9.61;100.00
5913;BME280;2982;42.684;23.356;2024-02-26T07:09:03;94467.06;;;9.68;100.00
5913;BME280;2982;42.684;23.356;2024-02-26T07:11:28;94495.75;;;9.84;100.00
5913;BME280;2982;42.684;23.356;2024-02-26T07:13:54;94501.09;;;9.80;100.00
5913;BME280;2982;42.684;23.356;2024-02-26T07:16:19;94484.38;;;9.76;100.00
5913;BME280;2982;42.684;23.356;2024-02-26T07:18:45;94506.09;;;9.95;100.00
5913;BME280;2982;42.684;23.356;2024-02-26T07:21:11;94494.19;;;9.82;100.00
5913;BME280;2982;42.684;23.356;2024-02-26T07:23:37;94513.59;;;9.83;100.00
5913;BME280;2982;42.684;23.356;2024-02-26T07:26:03;94504.97;;;9.85;100.00
5913;BME280;2982;42.684;23.356;2024-02-26T07:28:28;94508.22;;;9.73;100.00
5913;BME280;2982;42.684;23.356;2024-02-26T07:30:53;94502.34;;;9.87;100.00
5913;BME280;2982;42.684;23.356;2024-02-26T07:33:19;94503.28;;;10.00;100.00
5913;BME280;2982;42.684;23.356;2024-02-26T07:35:44;94503.31;;;10.14;100.00
5913;BME280;2982;42.684;23.356;2024-02-26T07:38:09;94513.41;;;10.15;100.00
5913;BME280;2982;42.684;23.356;2024-02-26T07:40:35;94508.25;;;10.31;100.00
5913;BME280;2982;42.684;23.356;2024-02-26T07:43:00;94514.53;;;10.40;100.00
5913;BME280;2982;42.684;23.356;2024-02-26T07:45:27;94524.97;;;10.49;100.00
5913;BME280;2982;42.684;23.356;2024-02-26T07:47:53;94513.81;;;10.52;100.00
5913;BME280;2982;42.684;23.356;2024-02-26T07:50:18;94508.19;;;10.47;100.00
5913;BME280;2982;42.684;23.356;2024-02-26T07:52:44;94477.16;;;10.28;100.00
5913;BME280;2982;42.684;23.356;2024-02-26T07:55:10;94499.03;;;10.30;100.00
5913;BME280;2982;42.684;23.356;2024-02-26T07:57:36;94511.53;;;10.33;100.00
5913;BME280;2982;42.684;23.356;2024-02-26T08:00:02;94454.53;;;10.09;100.00
5913;BME280;2982;42.684;23.356;2024-02-26T08:02:28;94488.06;;;10.44;100.00
5913;BME280;2982;42.684;23.356;2024-02-26T08:04:54;94487.16;;;10.59;100.00
5913;BME280;2982;42.684;23.356;2024-02-26T08:07:19;94483.38;;;10.79;100.00
5913;BME280;2982;42.684;23.356;2024-02-26T08:09:45;94492.06;;;11.03;100.00
5913;BME280;2982;42.684;23.356;2024-02-26T08:12:10;94469.56;;;10.97;100.00
5913;BME280;2982;42.684;23.356;2024-02-26T08:14:35;94497.44;;;11.25;100.00
5913;BME280;2982;42.684;23.356;2024-02-26T08:17:01;94496.13;;;11.20;100.00
5913;BME280;2982;42.684;23.356;2024-02-26T08:19:26;94499.41;;;11.34;100.00
5913;BME280;2982;42.684;23.356;2024-02-26T08:21:52;94498.25;;;11.53;100.00
5913;BME280;2982;42.684;23.356;2024-02-26T08:24:17;94462.28;;;11.59;100.00
5913;BME280;2982;42.684;23.356;2024-02-26T08:26:42;94505.66;;;12.09;100.00
5913;BME280;2982;42.684;23.356;2024-02-26T08:29:08;94533.38;;;12.26;100.00
5913;BME280;2982;42.684;23.356;2024-02-26T08:31:33;94489.19;;;12.40;100.00
5913;BME280;2982;42.684;23.356;2024-02-26T08:33:58;94495.28;;;12.50;100.00
5913;BME280;2982;42.684;23.356;2024-02-26T08:36:24;94495.78;;;12.55;100.00
5913;BME280;2982;42.684;23.356;2024-02-26T08:38:50;94491.63;;;12.54;100.00
5913;BME280;2982;42.684;23.356;2024-02-26T08:41:15;94497.59;;;12.78;100.00
5913;BME280;2982;42.684;23.356;2024-02-26T08:43:40;94489.03;;;12.79;100.00
5913;BME280;2982;42.684;23.356;2024-02-26T08:46:09;94489.19;;;13.14;100.00
5913;BME280;2982;42.684;23.356;2024-02-26T08:48:34;94489.47;;;13.22;100.00
5913;BME280;2982;42.684;23.356;2024-02-26T08:50:59;94490.22;;;13.36;100.00
5913;BME280;2982;42.684;23.356;2024-02-26T08:53:25;94490.66;;;13.53;100.00
5913;BME280;2982;42.684;23.356;2024-02-26T08:55:50;94489.88;;;13.53;100.00
5913;BME280;2982;42.684;23.356;2024-02-26T08:58:15;94490.88;;;13.74;100.00
5913;BME280;2982;42.684;23.356;2024-02-26T09:00:41;94482.50;;;13.72;100.00
5913;BME280;2982;42.684;23.356;2024-02-26T09:03:06;94489.41;;;13.59;100.00
5913;BME280;2982;42.684;23.356;2024-02-26T09:05:31;94478.50;;;13.57;100.00
5913;BME280;2982;42.684;23.356;2024-02-26T09:07:57;94482.31;;;13.51;100.00
5913;BME280;2982;42.684;23.356;2024-02-26T09:10:22;94483.72;;;13.32;100.00
5913;BME280;2982;42.684;23.356;2024-02-26T09:12:47;94477.28;;;13.39;100.00
5913;BME280;2982;42.684;23.356;2024-02-26T09:15:13;94479.91;;;13.61;100.00
5913;BME280;2982;42.684;23.356;2024-02-26T09:17:38;94476.03;;;13.79;100.00
5913;BME280;2982;42.684;23.356;2024-02-26T09:20:04;94467.66;;;13.77;100.00
5913;BME280;2982;42.684;23.356;2024-02-26T09:22:29;94466.16;;;13.75;100.00
5913;BME280;2982;42.684;23.356;2024-02-26T09:24:55;94447.66;;;13.60;100.00
5913;BME280;2982;42.684;23.356;2024-02-26T09:27:20;94465.94;;;13.78;100.00
5913;BME280;2982;42.684;23.356;2024-02-26T09:29:45;94463.56;;;13.98;100.00
5913;BME280;2982;42.684;23.356;2024-02-26T09:32:11;94451.38;;;14.02;100.00
5913;BME280;2982;42.684;23.356;2024-02-26T09:34:36;94464.06;;;14.15;100.00
5913;BME280;2982;42.684;23.356;2024-02-26T09:37:01;94444.56;;;14.14;100.00
5913;BME280;2982;42.684;23.356;2024-02-26T09:39:27;94456.13;;;14.41;100.00
5913;BME280;2982;42.684;23.356;2024-02-26T09:41:52;94446.06;;;14.16;100.00
5913;BME280;2982;42.684;23.356;2024-02-26T09:44:20;94455.44;;;14.50;100.00
5913;BME280;2982;42.684;23.356;2024-02-26T09:46:47;94440.28;;;14.70;100.00
5913;BME280;2982;42.684;23.356;2024-02-26T09:49:15;94421.75;;;14.45;100.00
5913;BME280;2982;42.684;23.356;2024-02-26T09:51:40;94449.47;;;14.61;100.00
5913;BME280;2982;42.684;23.356;2024-02-26T09:54:07;94462.75;;;14.77;100.00
5913;BME280;2982;42.684;23.356;2024-02-26T09:56:34;94402.91;;;14.58;100.00
5913;BME280;2982;42.684;23.356;2024-02-26T09:59:01;94449.66;;;15.14;100.00
5913;BME280;2982;42.684;23.356;2024-02-26T10:01:29;94447.19;;;15.23;100.00
5913;BME280;2982;42.684;23.356;2024-02-26T10:03:57;94442.28;;;15.31;100.00
5913;BME280;2982;42.684;23.356;2024-02-26T10:06:25;94443.53;;;15.05;100.00
5913;BME280;2982;42.684;23.356;2024-02-26T10:08:51;94442.34;;;14.98;100.00
5913;BME280;2982;42.684;23.356;2024-02-26T10:11:16;94431.59;;;14.83;100.00
5913;BME280;2982;42.684;23.356;2024-02-26T10:13:43;94440.16;;;15.05;100.00
5913;BME280;2982;42.684;23.356;2024-02-26T10:16:08;94428.28;;;15.04;100.00
5913;BME280;2982;42.684;23.356;2024-02-26T10:18:47;94439.19;;;15.17;100.00
5913;BME280;2982;42.684;23.356;2024-02-26T10:21:12;94434.56;;;15.11;100.00
5913;BME280;2982;42.684;23.356;2024-02-26T10:23:38;94407.16;;;15.02;100.00
5913;BME280;2982;42.684;23.356;2024-02-26T10:26:03;94376.78;;;15.08;100.00
5913;BME280;2982;42.684;23.356;2024-02-26T10:28:30;94418.59;;;15.29;100.00
5913;BME280;2982;42.684;23.356;2024-02-26T10:30:55;94423.72;;;15.61;100.00
5913;BME280;2982;42.684;23.356;2024-02-26T10:33:20;94359.16;;;15.26;100.00
5913;BME280;2982;42.684;23.356;2024-02-26T10:35:47;94378.84;;;15.46;100.00
5913;BME280;2982;42.684;23.356;2024-02-26T10:38:12;94392.00;;;15.41;100.00
5913;BME280;2982;42.684;23.356;2024-02-26T10:40:38;94419.19;;;15.85;100.00
5913;BME280;2982;42.684;23.356;2024-02-26T10:43:03;94412.78;;;15.59;100.00
5913;BME280;2982;42.684;23.356;2024-02-26T10:45:28;94378.09;;;15.34;100.00
5913;BME280;2982;42.684;23.356;2024-02-26T10:47:54;94410.56;;;15.66;100.00
5913;BME280;2982;42.684;23.356;2024-02-26T10:50:19;94383.16;;;15.46;100.00
5913;BME280;2982;42.684;23.356;2024-02-26T10:52:45;94404.28;;;15.59;100.00
5913;BME280;2982;42.684;23.356;2024-02-26T10:55:15;94403.75;;;15.44;100.00
5913;BME280;2982;42.684;23.356;2024-02-26T10:57:41;94392.25;;;15.38;100.00
5913;BME280;2982;42.684;23.356;2024-02-26T11:00:08;94402.06;;;15.65;100.00
5913;BME280;2982;42.684;23.356;2024-02-26T11:02:36;94390.59;;;15.49;100.00
5913;BME280;2982;42.684;23.356;2024-02-26T11:05:06;94400.50;;;15.74;100.00
5913;BME280;2982;42.684;23.356;2024-02-26T11:07:33;94369.66;;;15.75;100.00
5913;BME280;2982;42.684;23.356;2024-02-26T11:09:59;94387.13;;;15.91;100.00
5913;BME280;2982;42.684;23.356;2024-02-26T11:12:27;94398.19;;;15.92;100.00
5913;BME280;2982;42.684;23.356;2024-02-26T11:14:52;94394.19;;;15.78;100.00
5913;BME280;2982;42.684;23.356;2024-02-26T11:17:19;94361.78;;;15.67;100.00
5913;BME280;2982;42.684;23.356;2024-02-26T11:19:46;94318.44;;;15.55;100.00
5913;BME280;2982;42.684;23.356;2024-02-26T11:22:11;94392.34;;;16.10;100.00
5913;BME280;2982;42.684;23.356;2024-02-26T11:24:37;94387.81;;;15.72;100.00
5913;BME280;2982;42.684;23.356;2024-02-26T11:27:03;94390.44;;;15.82;100.00
5913;BME280;2982;42.684;23.356;2024-02-26T11:29:38;94321.34;;;15.50;100.00
5913;BME280;2982;42.684;23.356;2024-02-26T11:32:05;94386.69;;;16.07;100.00
5913;BME280;2982;42.684;23.356;2024-02-26T11:34:31;94383.22;;;16.17;100.00
5913;BME280;2982;42.684;23.356;2024-02-26T11:36:57;94379.50;;;16.31;100.00
5913;BME280;2982;42.684;23.356;2024-02-26T11:39:23;94389.31;;;16.47;100.00
5913;BME280;2982;42.684;23.356;2024-02-26T11:41:50;94345.03;;;16.05;100.00
5913;BME280;2982;42.684;23.356;2024-02-26T11:44:28;94385.53;;;16.20;100.00
5913;BME280;2982;42.684;23.356;2024-02-26T11:46:56;94377.59;;;16.23;100.00
5913;BME280;2982;42.684;23.356;2024-02-26T11:51:56;94360.72;;;15.91;100.00
5913;BME280;2982;42.684;23.356;2024-02-26T11:54:39;94378.56;;;16.02;100.00
5913;BME280;2982;42.684;23.356;2024-02-26T11:57:04;94379.00;;;16.07;100.00
5913;BME280;2982;42.684;23.356;2024-02-26T11:59:44;94375.72;;;15.95;100.00
5913;BME280;2982;42.684;23.356;2024-02-26T12:02:09;94374.06;;;15.94;100.00
5913;BME280;2982;42.684;23.356;2024-02-26T12:04:35;94345.88;;;15.32;100.00
5913;BME280;2982;42.684;23.356;2024-02-26T12:07:02;94370.72;;;15.52;100.00
5913;BME280;2982;42.684;23.356;2024-02-26T12:09:39;94372.22;;;15.43;100.00
5913;BME280;2982;42.684;23.356;2024-02-26T12:12:09;94363.75;;;15.11;100.00
5913;BME280;2982;42.684;23.356;2024-02-26T12:14:41;94370.28;;;15.36;100.00
5913;BME280;2982;42.684;23.356;2024-02-26T12:17:19;94371.09;;;15.36;100.00
5913;BME280;2982;42.684;23.356;2024-02-26T12:19:45;94378.00;;;15.77;100.00
5913;BME280;2982;42.684;23.356;2024-02-26T12:22:12;94368.19;;;16.03;100.00
5913;BME280;2982;42.684;23.356;2024-02-26T12:24:38;94366.69;;;16.01;100.00
5913;BME280;2982;42.684;23.356;2024-02-26T12:27:03;94363.63;;;16.07;100.00
5913;BME280;2982;42.684;23.356;2024-02-26T12:29:28;94367.34;;;16.23;100.00
5913;BME280;2982;42.684;23.356;2024-02-26T12:31:54;94356.63;;;16.09;100.00
5913;BME280;2982;42.684;23.356;2024-02-26T12:34:19;94372.44;;;16.14;100.00
5913;BME280;2982;42.684;23.356;2024-02-26T12:36:45;94372.09;;;16.28;99.63
5913;BME280;2982;42.684;23.356;2024-02-26T12:39:10;94388.31;;;16.08;100.00
5913;BME280;2982;42.684;23.356;2024-02-26T12:41:37;94370.50;;;16.37;100.00
5913;BME280;2982;42.684;23.356;2024-02-26T12:44:03;94369.00;;;16.64;98.67
5913;BME280;2982;42.684;23.356;2024-02-26T12:46:28;94372.94;;;16.68;98.56
5913;BME280;2982;42.684;23.356;2024-02-26T12:48:58;94373.78;;;16.79;96.81
5913;BME280;2982;42.684;23.356;2024-02-26T12:51:25;94366.50;;;16.93;94.01
5913;BME280;2982;42.684;23.356;2024-02-26T12:53:50;94361.09;;;16.87;92.59
5913;BME280;2982;42.684;23.356;2024-02-26T12:56:16;94358.84;;;17.03;90.50
5913;BME280;2982;42.684;23.356;2024-02-26T12:58:42;94365.72;;;17.02;91.27
5913;BME280;2982;42.684;23.356;2024-02-26T13:01:14;94357.47;;;17.08;90.34
5913;BME280;2982;42.684;23.356;2024-02-26T13:03:40;94364.09;;;17.11;89.42